Owingsville, Kentucky
Current Conditions -  °F | °C
As of 1:30 PM on Sunday 23 Nov 2014 (Local Time) from KSYM Reporting Station
Scattered Clouds Scattered Clouds  
Wind Chill: 61°   Ceiling: Unl
Heat Index: 61°   Visibility: 10mi
Dew Point: 45°   Wind: 10mph
Humidity: 55%   Direction: 140°SE
Pressure: 29.83"   Gusts: NA
Location:  38.14°N, 83.76°W
Report Text: KSYM 231830Z AUTO 14009KT 10SM FEW055 SCT070 SCT090 16/07 A2983 RMK AO2
Loading
Personal Weather Stations






























Interactive Weather Map New forecast layout! Learn more

10-Day Weather Forecast

Advertisements
Track Severe Weather on mobile